createdAt,value
2022-11-28T00:02:46.584Z,93997.54
2022-11-28T00:07:53.593Z,93996.97
2022-11-28T00:13:00.699Z,94002.89
2022-11-28T00:18:10.375Z,93998.70
2022-11-28T00:23:17.387Z,93998.09
2022-11-28T00:28:25.075Z,93987.78
2022-11-28T00:33:33.730Z,93981.42
2022-11-28T00:38:40.741Z,93977.33
2022-11-28T00:43:49.738Z,93972.53
2022-11-28T00:48:57.920Z,93968.47
2022-11-28T00:54:08.391Z,93967.91
2022-11-28T00:59:15.385Z,93966.48
2022-11-28T01:04:22.487Z,93968.19
2022-11-28T01:09:30.169Z,93958.34
2022-11-28T01:14:37.197Z,93950.02
2022-11-28T01:19:45.931Z,93942.48
2022-11-28T01:24:52.998Z,93938.98
2022-11-28T01:30:00.225Z,93931.16
2022-11-28T01:35:09.126Z,93929.34
2022-11-28T01:40:16.726Z,93919.17
2022-11-28T01:45:33.449Z,93915.57
2022-11-28T01:50:41.362Z,93908.64
2022-11-28T01:55:57.950Z,93907.65
2022-11-28T02:01:07.376Z,93899.52
2022-11-28T02:06:19.546Z,93889.88
2022-11-28T02:11:57.167Z,93886.85
2022-11-28T02:17:20.135Z,93871.02
2022-11-28T02:22:43.821Z,93868.45
2022-11-28T02:28:20.082Z,93865.72
2022-11-28T02:33:43.371Z,93862.45
2022-11-28T02:39:25.809Z,93853.31
2022-11-28T02:44:48.660Z,93845.27
2022-11-28T02:50:20.680Z,93833.26
2022-11-28T02:55:28.499Z,93835.15
2022-11-28T03:00:39.804Z,93835.67
2022-11-28T03:06:11.909Z,93834.79
2022-11-28T03:11:42.440Z,93827.06
2022-11-28T03:16:53.603Z,93826.42
2022-11-28T03:22:11.021Z,93822.44
2022-11-28T03:27:22.534Z,93824.75
2022-11-28T03:32:33.273Z,93809.19
2022-11-28T03:37:44.554Z,93808.98
2022-11-28T03:42:55.650Z,93806.17
2022-11-28T03:48:06.820Z,93805.78
2022-11-28T03:53:26.338Z,93800.67
2022-11-28T03:58:47.384Z,93791.41
2022-11-28T04:04:08.095Z,93787.52
2022-11-28T04:09:21.850Z,93777.59
2022-11-28T04:14:55.438Z,93765.50
2022-11-28T04:20:07.065Z,93765.30
2022-11-28T04:25:17.844Z,93752.84
2022-11-28T04:30:25.239Z,93757.05
2022-11-28T04:35:40.809Z,93750.98
2022-11-28T04:40:52.109Z,93751.47
2022-11-28T04:46:08.932Z,93759.53
2022-11-28T04:51:42.383Z,93748.86
2022-11-28T04:57:19.461Z,93753.13
2022-11-28T05:02:28.029Z,93756.92
2022-11-28T05:07:37.008Z,93760.66
2022-11-28T05:12:44.057Z,93760.14
2022-11-28T05:17:50.828Z,93761.54
2022-11-28T05:22:57.480Z,93758.65
2022-11-28T05:28:05.900Z,93760.85
2022-11-28T05:33:13.364Z,93758.86
2022-11-28T05:38:21.449Z,93765.87
2022-11-28T05:43:28.544Z,93772.39
2022-11-28T05:48:36.047Z,93766.78
2022-11-28T05:53:43.307Z,93787.02
2022-11-28T05:58:50.249Z,93756.44
2022-11-28T06:04:02.250Z,93757.95
2022-11-28T06:09:09.515Z,93754.34
2022-11-28T06:14:16.578Z,93758.64
2022-11-28T06:19:23.336Z,93756.11
2022-11-28T06:24:30.986Z,93752.72
2022-11-28T06:29:38.493Z,93752.41
2022-11-28T06:34:45.648Z,93751.53
2022-11-28T06:39:52.849Z,93752.53
2022-11-28T06:45:01.247Z,93752.71
2022-11-28T06:50:10.596Z,93750.02
2022-11-28T06:55:17.959Z,93779.41
2022-11-28T07:00:24.753Z,93747.22
2022-11-28T07:05:31.605Z,93750.72
2022-11-28T07:10:39.456Z,93748.52
2022-11-28T07:15:53.330Z,93745.91
2022-11-28T07:21:00.688Z,93753.64
2022-11-28T07:26:08.072Z,93744.72
2022-11-28T07:31:18.439Z,93575.52
2022-11-28T07:36:28.338Z,93740.17
2022-11-28T07:41:35.188Z,93741.20
2022-11-28T07:46:42.328Z,93734.27
2022-11-28T07:51:49.179Z,93731.87
2022-11-28T07:57:12.579Z,93719.20
2022-11-28T08:02:05.211Z,93716.24
2022-11-28T08:07:15.459Z,93713.16
2022-11-28T08:12:22.462Z,93717.16
2022-11-28T08:17:29.542Z,93712.37
2022-11-28T08:22:36.577Z,93704.20
2022-11-28T08:27:43.676Z,93709.54
2022-11-28T08:32:50.567Z,93716.45
2022-11-28T08:38:01.626Z,93718.28
2022-11-28T08:43:07.532Z,93721.04
2022-11-28T08:48:14.614Z,93719.31
2022-11-28T08:53:21.777Z,93720.56
2022-11-28T08:58:28.773Z,93710.00
2022-11-28T09:03:35.926Z,93719.17
2022-11-28T09:08:43.141Z,93719.69
2022-11-28T09:13:51.140Z,93716.03
2022-11-28T09:18:59.730Z,93705.67
2022-11-28T09:24:07.748Z,93704.97
2022-11-28T09:29:14.917Z,93695.87
2022-11-28T09:34:22.082Z,93680.97
2022-11-28T09:39:44.108Z,93682.16
2022-11-28T09:44:53.957Z,93670.73
2022-11-28T09:50:09.572Z,93666.95
2022-11-28T09:55:23.642Z,93659.72
2022-11-28T10:00:40.217Z,93655.69
2022-11-28T10:06:12.987Z,93642.30
2022-11-28T10:11:50.010Z,93634.50
2022-11-28T10:17:24.887Z,93634.84
2022-11-28T10:22:33.556Z,93625.68
2022-11-28T10:27:40.259Z,93629.77
2022-11-28T10:32:51.728Z,93625.94
2022-11-28T10:37:59.163Z,93618.08
2022-11-28T10:43:22.424Z,93619.30
2022-11-28T10:48:42.302Z,93615.23
2022-11-28T10:54:27.771Z,93612.41
2022-11-28T11:00:07.407Z,93609.81
2022-11-28T11:05:24.497Z,93601.56
2022-11-28T11:10:43.628Z,93598.05
2022-11-28T11:15:54.984Z,93598.50
2022-11-28T11:21:24.683Z,93593.91
2022-11-28T11:26:35.721Z,93590.75
2022-11-28T11:32:22.170Z,93587.25
2022-11-28T11:37:39.178Z,93586.38
2022-11-28T11:42:53.654Z,93583.37
2022-11-28T11:48:00.688Z,93578.30
2022-11-28T11:53:16.427Z,93573.38
2022-11-28T11:58:28.024Z,93568.69
2022-11-28T12:03:51.112Z,93560.54
2022-11-28T12:09:20.861Z,93553.20
2022-11-28T12:14:32.358Z,93551.06
2022-11-28T12:19:58.828Z,93543.44
2022-11-28T12:25:25.378Z,93545.02
2022-11-28T12:31:15.513Z,93537.43
2022-11-28T12:36:51.083Z,93539.92
2022-11-28T12:42:11.164Z,93540.94
2022-11-28T12:47:34.349Z,93541.91
2022-11-28T12:53:13.899Z,93537.09
2022-11-28T12:58:40.200Z,93539.30
2022-11-28T13:04:09.238Z,93542.70
2022-11-28T13:09:40.219Z,93538.98
2022-11-28T13:15:15.252Z,93532.25
2022-11-28T13:20:31.786Z,93528.63
2022-11-28T13:25:54.894Z,93523.66
2022-11-28T13:31:27.176Z,93518.72
2022-11-28T13:42:36.576Z,93523.37
2022-11-28T13:47:35.461Z,93530.89
2022-11-28T13:52:44.397Z,93526.95
2022-11-28T13:57:50.871Z,93527.38
2022-11-28T14:03:00.453Z,93524.80
2022-11-28T14:08:08.736Z,93529.30
2022-11-28T14:13:28.832Z,93534.35
2022-11-28T14:19:06.570Z,93534.67
2022-11-28T14:24:47.837Z,93534.00
2022-11-28T14:29:57.337Z,93534.16
2022-11-28T14:35:07.189Z,93528.42
2022-11-28T14:40:52.687Z,93537.84
2022-11-28T14:46:28.717Z,93535.37
2022-11-28T14:52:16.036Z,93532.97
2022-11-28T14:57:06.639Z,93528.31
2022-11-28T15:02:23.999Z,93529.52
2022-11-28T15:07:53.027Z,93533.22
2022-11-28T15:13:04.313Z,93540.45
2022-11-28T15:18:13.129Z,93543.20
2022-11-28T15:23:36.087Z,93557.70
2022-11-28T15:28:43.834Z,93560.82
2022-11-28T15:33:52.028Z,93565.97
2022-11-28T15:38:59.584Z,93566.39
2022-11-28T15:44:06.464Z,93571.03
2022-11-28T15:49:32.342Z,93570.04
2022-11-28T15:54:44.758Z,93567.91
2022-11-28T15:59:52.347Z,93566.38
2022-11-28T16:05:22.349Z,93561.31
2022-11-28T16:10:37.382Z,93563.09
2022-11-28T16:15:50.093Z,93562.00
2022-11-28T16:20:59.510Z,93566.33
2022-11-28T16:26:34.535Z,93563.25
2022-11-28T16:31:41.431Z,93572.35
2022-11-28T16:36:51.784Z,93568.72
2022-11-28T16:42:20.578Z,93571.70
2022-11-28T16:47:31.748Z,93582.16
2022-11-28T16:52:50.473Z,93578.19
2022-11-28T16:58:13.298Z,93567.91
2022-11-28T17:03:46.462Z,93565.91
2022-11-28T17:08:53.827Z,93579.72
2022-11-28T17:14:02.689Z,93574.56
2022-11-28T17:19:09.546Z,93578.63
2022-11-28T17:24:28.392Z,93579.64
2022-11-28T17:29:35.657Z,93584.05
2022-11-28T17:34:44.230Z,93584.23
2022-11-28T17:40:08.770Z,93581.38
2022-11-28T17:45:17.001Z,93580.47
2022-11-28T17:50:24.083Z,93580.95
2022-11-28T17:55:31.622Z,93584.66
2022-11-28T18:00:38.597Z,93584.39
2022-11-28T18:05:50.107Z,93580.84
2022-11-28T18:11:09.275Z,93580.78
2022-11-28T18:16:20.231Z,93579.17
2022-11-28T18:21:27.273Z,93569.98
2022-11-28T18:26:34.242Z,93567.81
2022-11-28T18:31:41.001Z,93564.78
2022-11-28T18:36:48.332Z,93564.61
2022-11-28T18:41:57.068Z,93565.16
2022-11-28T18:47:04.337Z,93560.63
2022-11-28T18:52:13.844Z,93563.81
2022-11-28T18:57:21.382Z,93563.50
2022-11-28T19:02:30.589Z,93560.95
2022-11-28T19:07:38.010Z,93556.56
2022-11-28T19:12:45.230Z,93559.67
2022-11-28T19:17:54.434Z,93559.76
2022-11-28T19:23:01.469Z,93556.89
2022-11-28T19:28:08.326Z,93565.89
2022-11-28T19:33:15.819Z,93561.42
2022-11-28T19:38:23.406Z,93559.50
2022-11-28T19:43:30.630Z,93559.79
2022-11-28T19:48:40.188Z,93564.91
2022-11-28T19:53:47.235Z,93567.41
2022-11-28T19:58:54.283Z,93566.94
2022-11-28T20:04:01.573Z,93563.74
2022-11-28T20:09:12.046Z,93560.86
2022-11-28T20:14:21.583Z,93560.01
2022-11-28T20:19:28.622Z,93563.13
2022-11-28T20:24:37.347Z,93565.38
2022-11-28T20:29:44.641Z,93567.66
2022-11-28T20:34:51.812Z,93565.02
2022-11-28T20:39:58.717Z,93570.57
2022-11-28T20:45:06.427Z,93574.31
2022-11-28T20:50:13.048Z,93584.00
2022-11-28T20:55:19.844Z,93583.88
2022-11-28T21:00:26.998Z,93580.30
2022-11-28T21:05:38.127Z,93583.93
2022-11-28T21:10:44.743Z,93583.63
2022-11-28T21:15:52.326Z,93584.58
2022-11-28T21:20:59.143Z,93567.45
2022-11-28T21:26:10.491Z,93574.78
2022-11-28T21:31:24.288Z,93569.27
2022-11-28T21:36:31.659Z,93568.91
2022-11-28T21:41:38.251Z,93564.94
2022-11-28T21:46:45.047Z,93567.39
2022-11-28T21:51:52.124Z,93567.22
2022-11-28T21:56:59.216Z,93550.80
2022-11-28T22:02:11.486Z,93557.18
2022-11-28T22:07:14.789Z,93554.34
2022-11-28T22:12:21.520Z,93547.52
2022-11-28T22:17:28.335Z,93548.54
2022-11-28T22:22:35.413Z,93545.81
2022-11-28T22:27:42.266Z,93552.98
2022-11-28T22:32:49.199Z,93552.06
2022-11-28T22:37:56.666Z,93559.23
2022-11-28T22:43:03.387Z,93545.83
2022-11-28T22:48:10.432Z,93545.44
2022-11-28T22:53:17.949Z,93541.89
2022-11-28T22:58:25.137Z,93549.22
2022-11-28T23:03:32.105Z,93548.41
2022-11-28T23:08:40.761Z,93546.45
2022-11-28T23:13:49.547Z,93537.23
2022-11-28T23:19:00.573Z,93540.10
2022-11-28T23:24:09.144Z,93536.91
2022-11-28T23:29:16.830Z,93539.14
2022-11-28T23:34:23.687Z,93537.98
2022-11-28T23:39:30.957Z,93531.33
2022-11-28T23:44:37.804Z,93532.45
2022-11-28T23:49:45.056Z,93537.16
2022-11-28T23:54:52.027Z,93543.52
